sensor_id;sensor_type;location;lat;lon;timestamp;P1;durP1;ratioP1;P2;durP2;ratioP2
801;SDS011;383;48.766;9.270;2023-02-03T00:01:38;1.70;;;1.60;;
801;SDS011;383;48.766;9.270;2023-02-03T00:04:05;2.38;;;1.63;;
801;SDS011;383;48.766;9.270;2023-02-03T00:06:32;1.45;;;1.30;;
801;SDS011;383;48.766;9.270;2023-02-03T00:09:00;1.25;;;1.23;;
801;SDS011;383;48.766;9.270;2023-02-03T00:11:28;2.10;;;1.73;;
801;SDS011;383;48.766;9.270;2023-02-03T00:13:55;5.57;;;1.60;;
801;SDS011;383;48.766;9.270;2023-02-03T00:16:22;4.65;;;1.60;;
801;SDS011;383;48.766;9.270;2023-02-03T00:18:49;6.93;;;1.27;;
801;SDS011;383;48.766;9.270;2023-02-03T00:21:15;1.13;;;1.10;;
801;SDS011;383;48.766;9.270;2023-02-03T00:23:42;6.10;;;1.77;;
801;SDS011;383;48.766;9.270;2023-02-03T00:26:11;4.80;;;2.05;;
801;SDS011;383;48.766;9.270;2023-02-03T00:28:38;1.27;;;1.20;;
801;SDS011;383;48.766;9.270;2023-02-03T00:31:05;1.33;;;1.23;;
801;SDS011;383;48.766;9.270;2023-02-03T00:33:40;2.95;;;1.60;;
801;SDS011;383;48.766;9.270;2023-02-03T00:36:07;1.85;;;1.42;;
801;SDS011;383;48.766;9.270;2023-02-03T00:38:34;1.30;;;1.10;;
801;SDS011;383;48.766;9.270;2023-02-03T00:41:01;4.35;;;1.23;;
801;SDS011;383;48.766;9.270;2023-02-03T00:43:29;1.75;;;1.30;;
801;SDS011;383;48.766;9.270;2023-02-03T00:45:55;1.58;;;1.17;;
801;SDS011;383;48.766;9.270;2023-02-03T00:48:22;1.45;;;1.38;;
801;SDS011;383;48.766;9.270;2023-02-03T00:50:49;2.00;;;1.30;;
801;SDS011;383;48.766;9.270;2023-02-03T00:53:15;1.30;;;1.20;;
801;SDS011;383;48.766;9.270;2023-02-03T00:55:42;1.75;;;1.40;;
801;SDS011;383;48.766;9.270;2023-02-03T00:58:09;1.75;;;1.17;;
801;SDS011;383;48.766;9.270;2023-02-03T01:00:37;3.88;;;1.40;;
801;SDS011;383;48.766;9.270;2023-02-03T01:03:04;1.83;;;1.40;;
801;SDS011;383;48.766;9.270;2023-02-03T01:05:30;1.15;;;1.10;;
801;SDS011;383;48.766;9.270;2023-02-03T01:07:57;1.02;;;0.93;;
801;SDS011;383;48.766;9.270;2023-02-03T01:10:25;1.70;;;1.50;;
801;SDS011;383;48.766;9.270;2023-02-03T01:12:52;1.30;;;1.20;;
801;SDS011;383;48.766;9.270;2023-02-03T01:15:19;1.30;;;1.20;;
801;SDS011;383;48.766;9.270;2023-02-03T01:17:47;1.45;;;1.35;;
801;SDS011;383;48.766;9.270;2023-02-03T01:20:13;2.42;;;1.58;;
801;SDS011;383;48.766;9.270;2023-02-03T01:22:41;1.75;;;1.58;;
801;SDS011;383;48.766;9.270;2023-02-03T01:25:08;1.45;;;1.27;;
801;SDS011;383;48.766;9.270;2023-02-03T01:27:34;3.83;;;1.38;;
801;SDS011;383;48.766;9.270;2023-02-03T01:30:01;2.15;;;1.50;;
801;SDS011;383;48.766;9.270;2023-02-03T01:32:28;1.55;;;1.40;;
801;SDS011;383;48.766;9.270;2023-02-03T01:34:56;1.90;;;1.50;;
801;SDS011;383;48.766;9.270;2023-02-03T01:37:23;5.82;;;1.55;;
801;SDS011;383;48.766;9.270;2023-02-03T01:39:50;3.17;;;1.73;;
801;SDS011;383;48.766;9.270;2023-02-03T01:42:16;1.80;;;1.70;;
801;SDS011;383;48.766;9.270;2023-02-03T01:44:43;2.40;;;1.60;;
801;SDS011;383;48.766;9.270;2023-02-03T01:47:17;1.77;;;1.45;;
801;SDS011;383;48.766;9.270;2023-02-03T01:49:51;3.30;;;2.00;;
801;SDS011;383;48.766;9.270;2023-02-03T01:52:24;4.82;;;2.17;;
801;SDS011;383;48.766;9.270;2023-02-03T01:54:51;1.40;;;1.30;;
801;SDS011;383;48.766;9.270;2023-02-03T01:57:23;2.38;;;1.30;;
801;SDS011;383;48.766;9.270;2023-02-03T01:59:52;1.65;;;1.55;;
801;SDS011;383;48.766;9.270;2023-02-03T02:02:21;3.65;;;1.80;;
801;SDS011;383;48.766;9.270;2023-02-03T02:04:49;7.93;;;1.83;;
801;SDS011;383;48.766;9.270;2023-02-03T02:07:23;2.00;;;1.55;;
801;SDS011;383;48.766;9.270;2023-02-03T02:09:50;2.33;;;1.80;;
801;SDS011;383;48.766;9.270;2023-02-03T02:12:17;4.20;;;1.60;;
801;SDS011;383;48.766;9.270;2023-02-03T02:14:44;2.13;;;1.70;;
801;SDS011;383;48.766;9.270;2023-02-03T02:17:16;2.05;;;1.70;;
801;SDS011;383;48.766;9.270;2023-02-03T02:19:58;1.27;;;1.17;;
801;SDS011;383;48.766;9.270;2023-02-03T02:22:55;1.52;;;1.50;;
801;SDS011;383;48.766;9.270;2023-02-03T02:25:47;1.50;;;1.38;;
801;SDS011;383;48.766;9.270;2023-02-03T02:31:47;3.60;;;2.08;;
801;SDS011;383;48.766;9.270;2023-02-03T02:34:20;2.25;;;1.73;;
801;SDS011;383;48.766;9.270;2023-02-03T02:36:55;5.65;;;2.17;;
801;SDS011;383;48.766;9.270;2023-02-03T02:39:30;1.77;;;1.33;;
801;SDS011;383;48.766;9.270;2023-02-03T02:42:04;3.42;;;1.60;;
801;SDS011;383;48.766;9.270;2023-02-03T02:44:37;5.05;;;1.70;;
801;SDS011;383;48.766;9.270;2023-02-03T02:47:09;2.35;;;1.30;;
801;SDS011;383;48.766;9.270;2023-02-03T02:49:42;2.60;;;1.63;;
801;SDS011;383;48.766;9.270;2023-02-03T02:52:13;3.67;;;1.85;;
801;SDS011;383;48.766;9.270;2023-02-03T02:54:43;2.80;;;1.73;;
801;SDS011;383;48.766;9.270;2023-02-03T02:57:13;2.03;;;1.85;;
801;SDS011;383;48.766;9.270;2023-02-03T02:59:43;2.33;;;1.98;;
801;SDS011;383;48.766;9.270;2023-02-03T03:02:12;5.35;;;1.90;;
801;SDS011;383;48.766;9.270;2023-02-03T03:04:39;2.67;;;2.20;;
801;SDS011;383;48.766;9.270;2023-02-03T03:07:07;2.10;;;1.67;;
801;SDS011;383;48.766;9.270;2023-02-03T03:09:37;3.47;;;1.85;;
801;SDS011;383;48.766;9.270;2023-02-03T03:12:07;2.25;;;1.95;;
801;SDS011;383;48.766;9.270;2023-02-03T03:14:37;1.80;;;1.75;;
801;SDS011;383;48.766;9.270;2023-02-03T03:17:09;3.00;;;1.83;;
801;SDS011;383;48.766;9.270;2023-02-03T03:19:41;3.25;;;1.80;;
801;SDS011;383;48.766;9.270;2023-02-03T03:22:14;1.95;;;1.88;;
801;SDS011;383;48.766;9.270;2023-02-03T03:24:46;3.78;;;1.92;;
801;SDS011;383;48.766;9.270;2023-02-03T03:27:17;3.95;;;2.10;;
801;SDS011;383;48.766;9.270;2023-02-03T03:29:47;5.13;;;2.50;;
801;SDS011;383;48.766;9.270;2023-02-03T03:32:19;6.50;;;2.60;;
801;SDS011;383;48.766;9.270;2023-02-03T03:34:46;5.88;;;2.70;;
801;SDS011;383;48.766;9.270;2023-02-03T03:37:15;3.30;;;2.25;;
801;SDS011;383;48.766;9.270;2023-02-03T03:39:46;3.45;;;2.15;;
801;SDS011;383;48.766;9.270;2023-02-03T03:42:18;19.15;;;2.80;;
801;SDS011;383;48.766;9.270;2023-02-03T03:44:51;5.07;;;2.13;;
801;SDS011;383;48.766;9.270;2023-02-03T03:47:25;6.47;;;2.70;;
801;SDS011;383;48.766;9.270;2023-02-03T03:49:56;4.40;;;1.75;;
801;SDS011;383;48.766;9.270;2023-02-03T03:52:26;7.13;;;2.25;;
801;SDS011;383;48.766;9.270;2023-02-03T03:54:56;3.72;;;1.90;;
801;SDS011;383;48.766;9.270;2023-02-03T03:57:25;4.43;;;2.20;;
801;SDS011;383;48.766;9.270;2023-02-03T03:59:56;5.88;;;2.10;;
801;SDS011;383;48.766;9.270;2023-02-03T04:02:26;3.20;;;1.60;;
801;SDS011;383;48.766;9.270;2023-02-03T04:04:54;3.05;;;1.77;;
801;SDS011;383;48.766;9.270;2023-02-03T04:07:24;3.63;;;1.70;;
801;SDS011;383;48.766;9.270;2023-02-03T04:10:03;6.65;;;2.10;;
801;SDS011;383;48.766;9.270;2023-02-03T04:12:37;1.98;;;1.48;;
801;SDS011;383;48.766;9.270;2023-02-03T04:15:04;4.03;;;2.03;;
801;SDS011;383;48.766;9.270;2023-02-03T04:17:32;1.63;;;1.58;;
801;SDS011;383;48.766;9.270;2023-02-03T04:20:00;2.70;;;2.05;;
801;SDS011;383;48.766;9.270;2023-02-03T04:22:27;6.43;;;2.38;;
801;SDS011;383;48.766;9.270;2023-02-03T04:24:53;10.60;;;3.83;;
801;SDS011;383;48.766;9.270;2023-02-03T04:27:22;4.22;;;3.05;;
801;SDS011;383;48.766;9.270;2023-02-03T04:29:49;3.17;;;2.10;;
801;SDS011;383;48.766;9.270;2023-02-03T04:32:16;3.80;;;2.65;;
801;SDS011;383;48.766;9.270;2023-02-03T04:34:44;4.15;;;1.95;;
801;SDS011;383;48.766;9.270;2023-02-03T04:37:11;2.63;;;1.33;;
801;SDS011;383;48.766;9.270;2023-02-03T04:39:38;2.75;;;1.55;;
801;SDS011;383;48.766;9.270;2023-02-03T04:42:05;2.30;;;1.48;;
801;SDS011;383;48.766;9.270;2023-02-03T04:44:31;2.03;;;1.50;;
801;SDS011;383;48.766;9.270;2023-02-03T04:46:58;2.55;;;1.50;;
801;SDS011;383;48.766;9.270;2023-02-03T04:49:25;1.80;;;1.60;;
801;SDS011;383;48.766;9.270;2023-02-03T04:51:53;3.30;;;2.20;;
801;SDS011;383;48.766;9.270;2023-02-03T04:54:19;2.10;;;1.45;;
801;SDS011;383;48.766;9.270;2023-02-03T04:56:46;2.35;;;1.60;;
801;SDS011;383;48.766;9.270;2023-02-03T04:59:13;3.03;;;1.80;;
801;SDS011;383;48.766;9.270;2023-02-03T05:01:39;1.60;;;1.50;;
801;SDS011;383;48.766;9.270;2023-02-03T05:04:06;4.13;;;1.80;;
801;SDS011;383;48.766;9.270;2023-02-03T05:06:33;2.75;;;2.00;;
801;SDS011;383;48.766;9.270;2023-02-03T05:09:01;3.92;;;1.90;;
801;SDS011;383;48.766;9.270;2023-02-03T05:11:28;3.22;;;2.15;;
801;SDS011;383;48.766;9.270;2023-02-03T05:13:54;4.03;;;2.38;;
801;SDS011;383;48.766;9.270;2023-02-03T05:16:21;2.30;;;1.85;;
801;SDS011;383;48.766;9.270;2023-02-03T05:18:48;1.90;;;1.88;;
801;SDS011;383;48.766;9.270;2023-02-03T05:21:15;3.97;;;1.73;;
801;SDS011;383;48.766;9.270;2023-02-03T05:23:42;4.40;;;1.95;;
801;SDS011;383;48.766;9.270;2023-02-03T05:26:10;5.03;;;2.05;;
801;SDS011;383;48.766;9.270;2023-02-03T05:28:37;2.85;;;2.00;;
801;SDS011;383;48.766;9.270;2023-02-03T05:31:03;3.97;;;2.30;;
801;SDS011;383;48.766;9.270;2023-02-03T05:33:30;2.42;;;1.98;;
801;SDS011;383;48.766;9.270;2023-02-03T05:35:57;11.40;;;2.22;;
801;SDS011;383;48.766;9.270;2023-02-03T05:38:24;3.00;;;1.63;;
801;SDS011;383;48.766;9.270;2023-02-03T05:40:51;2.17;;;1.98;;
801;SDS011;383;48.766;9.270;2023-02-03T05:43:37;3.67;;;2.00;;
801;SDS011;383;48.766;9.270;2023-02-03T05:46:04;4.72;;;2.47;;
801;SDS011;383;48.766;9.270;2023-02-03T05:48:32;1.70;;;1.60;;
801;SDS011;383;48.766;9.270;2023-02-03T05:50:59;2.40;;;2.20;;
801;SDS011;383;48.766;9.270;2023-02-03T05:53:26;6.35;;;1.98;;
801;SDS011;383;48.766;9.270;2023-02-03T05:55:53;2.97;;;1.95;;
801;SDS011;383;48.766;9.270;2023-02-03T05:58:19;2.50;;;1.95;;
801;SDS011;383;48.766;9.270;2023-02-03T06:00:48;3.90;;;2.13;;
801;SDS011;383;48.766;9.270;2023-02-03T06:03:14;3.95;;;1.80;;
801;SDS011;383;48.766;9.270;2023-02-03T06:05:41;7.07;;;1.90;;
801;SDS011;383;48.766;9.270;2023-02-03T06:08:09;2.35;;;1.63;;
801;SDS011;383;48.766;9.270;2023-02-03T06:10:36;3.63;;;2.00;;
801;SDS011;383;48.766;9.270;2023-02-03T06:13:09;4.35;;;2.00;;
801;SDS011;383;48.766;9.270;2023-02-03T06:15:37;6.38;;;2.30;;
801;SDS011;383;48.766;9.270;2023-02-03T06:18:05;5.50;;;2.42;;
801;SDS011;383;48.766;9.270;2023-02-03T06:20:32;3.17;;;1.85;;
801;SDS011;383;48.766;9.270;2023-02-03T06:22:59;4.15;;;2.47;;
801;SDS011;383;48.766;9.270;2023-02-03T06:25:26;3.33;;;2.40;;
801;SDS011;383;48.766;9.270;2023-02-03T06:27:56;3.92;;;2.08;;
801;SDS011;383;48.766;9.270;2023-02-03T06:30:22;3.85;;;2.20;;
801;SDS011;383;48.766;9.270;2023-02-03T06:32:49;4.93;;;2.50;;
801;SDS011;383;48.766;9.270;2023-02-03T06:35:17;3.35;;;2.25;;
801;SDS011;383;48.766;9.270;2023-02-03T06:37:44;4.40;;;1.98;;
801;SDS011;383;48.766;9.270;2023-02-03T06:40:11;4.10;;;2.03;;
801;SDS011;383;48.766;9.270;2023-02-03T06:42:38;2.50;;;2.13;;
801;SDS011;383;48.766;9.270;2023-02-03T06:45:05;2.33;;;1.70;;
801;SDS011;383;48.766;9.270;2023-02-03T06:47:33;1.98;;;1.55;;
801;SDS011;383;48.766;9.270;2023-02-03T06:49:59;3.20;;;1.83;;
801;SDS011;383;48.766;9.270;2023-02-03T06:52:27;2.42;;;2.00;;
801;SDS011;383;48.766;9.270;2023-02-03T06:54:54;4.25;;;2.10;;
801;SDS011;383;48.766;9.270;2023-02-03T06:57:21;3.92;;;1.90;;
801;SDS011;383;48.766;9.270;2023-02-03T06:59:47;3.00;;;2.10;;
801;SDS011;383;48.766;9.270;2023-02-03T07:02:14;3.90;;;2.05;;
801;SDS011;383;48.766;9.270;2023-02-03T07:04:41;2.15;;;1.50;;
801;SDS011;383;48.766;9.270;2023-02-03T07:07:09;5.57;;;2.00;;
801;SDS011;383;48.766;9.270;2023-02-03T07:09:37;6.05;;;2.47;;
801;SDS011;383;48.766;9.270;2023-02-03T07:12:04;4.28;;;1.92;;
801;SDS011;383;48.766;9.270;2023-02-03T07:14:31;3.70;;;2.00;;
801;SDS011;383;48.766;9.270;2023-02-03T07:16:59;4.55;;;2.65;;
801;SDS011;383;48.766;9.270;2023-02-03T07:19:26;4.28;;;1.88;;
801;SDS011;383;48.766;9.270;2023-02-03T07:21:52;6.20;;;2.00;;
801;SDS011;383;48.766;9.270;2023-02-03T07:24:20;4.15;;;1.85;;
801;SDS011;383;48.766;9.270;2023-02-03T07:26:48;2.83;;;1.60;;
801;SDS011;383;48.766;9.270;2023-02-03T07:29:14;4.00;;;1.77;;
801;SDS011;383;48.766;9.270;2023-02-03T07:31:41;3.65;;;2.05;;
801;SDS011;383;48.766;9.270;2023-02-03T07:34:08;2.97;;;1.67;;
801;SDS011;383;48.766;9.270;2023-02-03T07:36:35;11.10;;;2.85;;
801;SDS011;383;48.766;9.270;2023-02-03T07:39:01;6.22;;;2.45;;
801;SDS011;383;48.766;9.270;2023-02-03T07:41:28;3.88;;;1.95;;
801;SDS011;383;48.766;9.270;2023-02-03T07:43:56;3.55;;;2.25;;
801;SDS011;383;48.766;9.270;2023-02-03T07:46:23;6.05;;;2.15;;
801;SDS011;383;48.766;9.270;2023-02-03T07:48:50;2.40;;;1.73;;
801;SDS011;383;48.766;9.270;2023-02-03T07:51:16;3.33;;;1.65;;
801;SDS011;383;48.766;9.270;2023-02-03T07:53:43;2.05;;;1.92;;
801;SDS011;383;48.766;9.270;2023-02-03T07:56:10;4.07;;;2.08;;
801;SDS011;383;48.766;9.270;2023-02-03T07:58:37;3.65;;;2.20;;
801;SDS011;383;48.766;9.270;2023-02-03T08:01:09;3.05;;;1.95;;
801;SDS011;383;48.766;9.270;2023-02-03T08:03:37;4.75;;;1.80;;
801;SDS011;383;48.766;9.270;2023-02-03T08:06:04;6.57;;;2.08;;
801;SDS011;383;48.766;9.270;2023-02-03T08:08:31;3.95;;;2.28;;
801;SDS011;383;48.766;9.270;2023-02-03T08:10:58;6.50;;;2.60;;
801;SDS011;383;48.766;9.270;2023-02-03T08:13:25;4.65;;;2.53;;
801;SDS011;383;48.766;9.270;2023-02-03T08:15:52;3.88;;;2.58;;
801;SDS011;383;48.766;9.270;2023-02-03T08:18:20;3.17;;;2.47;;
801;SDS011;383;48.766;9.270;2023-02-03T08:20:47;5.65;;;2.17;;
801;SDS011;383;48.766;9.270;2023-02-03T08:23:13;4.93;;;2.53;;
801;SDS011;383;48.766;9.270;2023-02-03T08:25:40;6.40;;;3.83;;
801;SDS011;383;48.766;9.270;2023-02-03T08:28:07;5.53;;;2.60;;
801;SDS011;383;48.766;9.270;2023-02-03T08:30:33;19.92;;;6.10;;
801;SDS011;383;48.766;9.270;2023-02-03T08:33:00;5.20;;;3.75;;
801;SDS011;383;48.766;9.270;2023-02-03T08:35:28;4.40;;;3.00;;
801;SDS011;383;48.766;9.270;2023-02-03T08:37:55;10.07;;;4.45;;
801;SDS011;383;48.766;9.270;2023-02-03T08:40:21;5.38;;;3.00;;
801;SDS011;383;48.766;9.270;2023-02-03T08:42:48;8.05;;;3.40;;
801;SDS011;383;48.766;9.270;2023-02-03T08:45:15;5.22;;;3.13;;
801;SDS011;383;48.766;9.270;2023-02-03T08:47:41;4.43;;;2.75;;
801;SDS011;383;48.766;9.270;2023-02-03T08:50:09;7.95;;;6.43;;
801;SDS011;383;48.766;9.270;2023-02-03T08:52:38;6.18;;;3.70;;
801;SDS011;383;48.766;9.270;2023-02-03T08:55:05;13.98;;;10.75;;
801;SDS011;383;48.766;9.270;2023-02-03T08:57:32;8.05;;;3.75;;
801;SDS011;383;48.766;9.270;2023-02-03T09:00:00;10.98;;;4.25;;
801;SDS011;383;48.766;9.270;2023-02-03T09:02:27;8.57;;;6.15;;
801;SDS011;383;48.766;9.270;2023-02-03T09:04:53;10.65;;;4.35;;
801;SDS011;383;48.766;9.270;2023-02-03T09:07:20;4.97;;;2.80;;
801;SDS011;383;48.766;9.270;2023-02-03T09:09:48;5.97;;;2.67;;
801;SDS011;383;48.766;9.270;2023-02-03T09:12:15;11.95;;;2.75;;
801;SDS011;383;48.766;9.270;2023-02-03T09:14:42;4.20;;;2.38;;
801;SDS011;383;48.766;9.270;2023-02-03T09:17:09;3.67;;;2.35;;
801;SDS011;383;48.766;9.270;2023-02-03T09:19:36;2.92;;;2.42;;
801;SDS011;383;48.766;9.270;2023-02-03T09:22:02;5.32;;;2.75;;
801;SDS011;383;48.766;9.270;2023-02-03T09:24:29;6.10;;;4.43;;
801;SDS011;383;48.766;9.270;2023-02-03T09:26:57;8.30;;;3.53;;
801;SDS011;383;48.766;9.270;2023-02-03T09:29:25;6.75;;;2.72;;
801;SDS011;383;48.766;9.270;2023-02-03T09:31:52;2.63;;;2.35;;
801;SDS011;383;48.766;9.270;2023-02-03T09:34:19;5.20;;;3.17;;
801;SDS011;383;48.766;9.270;2023-02-03T09:36:46;3.38;;;2.58;;
801;SDS011;383;48.766;9.270;2023-02-03T09:39:13;2.72;;;1.90;;
801;SDS011;383;48.766;9.270;2023-02-03T09:41:47;4.15;;;3.15;;
801;SDS011;383;48.766;9.270;2023-02-03T09:44:25;6.85;;;2.42;;
801;SDS011;383;48.766;9.270;2023-02-03T09:46:58;2.85;;;2.10;;
801;SDS011;383;48.766;9.270;2023-02-03T09:49:30;7.88;;;3.20;;
801;SDS011;383;48.766;9.270;2023-02-03T09:52:02;5.80;;;2.42;;
801;SDS011;383;48.766;9.270;2023-02-03T09:54:35;5.65;;;2.45;;
801;SDS011;383;48.766;9.270;2023-02-03T09:57:10;12.40;;;3.30;;
801;SDS011;383;48.766;9.270;2023-02-03T09:59:42;5.18;;;2.88;;
801;SDS011;383;48.766;9.270;2023-02-03T10:02:13;2.50;;;2.20;;
801;SDS011;383;48.766;9.270;2023-02-03T10:05:05;6.30;;;3.30;;
801;SDS011;383;48.766;9.270;2023-02-03T10:07:41;5.93;;;2.72;;
801;SDS011;383;48.766;9.270;2023-02-03T10:10:17;3.25;;;2.30;;
801;SDS011;383;48.766;9.270;2023-02-03T10:12:58;3.88;;;2.03;;
801;SDS011;383;48.766;9.270;2023-02-03T10:15:42;5.18;;;2.28;;
801;SDS011;383;48.766;9.270;2023-02-03T10:18:22;4.18;;;2.70;;
801;SDS011;383;48.766;9.270;2023-02-03T10:20:50;3.42;;;2.60;;
801;SDS011;383;48.766;9.270;2023-02-03T10:23:21;3.55;;;3.00;;
801;SDS011;383;48.766;9.270;2023-02-03T10:25:53;3.97;;;2.72;;
801;SDS011;383;48.766;9.270;2023-02-03T10:28:21;3.35;;;3.00;;
801;SDS011;383;48.766;9.270;2023-02-03T10:30:53;2.90;;;2.08;;
801;SDS011;383;48.766;9.270;2023-02-03T10:33:24;4.72;;;2.80;;
801;SDS011;383;48.766;9.270;2023-02-03T10:35:52;8.73;;;3.25;;
801;SDS011;383;48.766;9.270;2023-02-03T10:38:24;7.03;;;4.45;;
801;SDS011;383;48.766;9.270;2023-02-03T10:40:58;8.48;;;3.60;;
801;SDS011;383;48.766;9.270;2023-02-03T10:43:26;6.53;;;3.95;;
801;SDS011;383;48.766;9.270;2023-02-03T10:46:17;8.18;;;2.67;;
801;SDS011;383;48.766;9.270;2023-02-03T10:48:45;4.22;;;2.83;;
801;SDS011;383;48.766;9.270;2023-02-03T10:51:14;7.75;;;3.85;;
801;SDS011;383;48.766;9.270;2023-02-03T10:53:45;3.45;;;2.42;;
801;SDS011;383;48.766;9.270;2023-02-03T10:56:13;2.85;;;2.42;;
801;SDS011;383;48.766;9.270;2023-02-03T10:58:46;3.25;;;2.03;;
801;SDS011;383;48.766;9.270;2023-02-03T11:01:15;4.05;;;2.55;;
801;SDS011;383;48.766;9.270;2023-02-03T11:03:52;6.13;;;2.05;;
801;SDS011;383;48.766;9.270;2023-02-03T11:06:21;4.43;;;2.08;;
801;SDS011;383;48.766;9.270;2023-02-03T11:08:49;3.45;;;1.77;;
801;SDS011;383;48.766;9.270;2023-02-03T11:11:19;5.85;;;2.30;;
801;SDS011;383;48.766;9.270;2023-02-03T11:13:51;5.32;;;2.15;;
801;SDS011;383;48.766;9.270;2023-02-03T11:16:20;3.92;;;2.00;;
801;SDS011;383;48.766;9.270;2023-02-03T11:18:53;5.40;;;2.53;;
801;SDS011;383;48.766;9.270;2023-02-03T11:21:21;2.13;;;1.70;;
801;SDS011;383;48.766;9.270;2023-02-03T11:23:54;3.20;;;2.00;;
801;SDS011;383;48.766;9.270;2023-02-03T11:26:23;5.65;;;2.38;;
801;SDS011;383;48.766;9.270;2023-02-03T11:28:53;2.33;;;2.00;;
801;SDS011;383;48.766;9.270;2023-02-03T11:31:25;4.40;;;2.80;;
801;SDS011;383;48.766;9.270;2023-02-03T11:33:54;7.13;;;3.95;;
801;SDS011;383;48.766;9.270;2023-02-03T11:36:27;2.58;;;2.00;;
801;SDS011;383;48.766;9.270;2023-02-03T11:39:09;5.78;;;2.50;;
801;SDS011;383;48.766;9.270;2023-02-03T11:41:41;5.60;;;4.20;;
801;SDS011;383;48.766;9.270;2023-02-03T11:44:11;17.02;;;8.43;;
801;SDS011;383;48.766;9.270;2023-02-03T11:46:44;11.75;;;5.90;;
801;SDS011;383;48.766;9.270;2023-02-03T11:49:17;15.55;;;5.68;;
801;SDS011;383;48.766;9.270;2023-02-03T11:52:21;8.43;;;3.70;;
801;SDS011;383;48.766;9.270;2023-02-03T11:55:25;6.25;;;3.70;;
801;SDS011;383;48.766;9.270;2023-02-03T11:58:02;2.67;;;2.50;;
801;SDS011;383;48.766;9.270;2023-02-03T12:00:40;7.60;;;3.75;;
801;SDS011;383;48.766;9.270;2023-02-03T12:06:15;10.00;;;3.30;;
801;SDS011;383;48.766;9.270;2023-02-03T12:09:03;3.15;;;2.28;;
801;SDS011;383;48.766;9.270;2023-02-03T12:11:49;8.75;;;3.08;;
801;SDS011;383;48.766;9.270;2023-02-03T12:14:31;10.13;;;5.40;;
801;SDS011;383;48.766;9.270;2023-02-03T12:17:16;15.50;;;5.20;;
801;SDS011;383;48.766;9.270;2023-02-03T12:20:04;7.18;;;3.13;;
801;SDS011;383;48.766;9.270;2023-02-03T12:22:45;5.70;;;3.67;;
801;SDS011;383;48.766;9.270;2023-02-03T12:25:24;4.05;;;2.90;;
801;SDS011;383;48.766;9.270;2023-02-03T12:28:00;6.85;;;4.78;;
801;SDS011;383;48.766;9.270;2023-02-03T12:30:38;3.42;;;2.28;;
801;SDS011;383;48.766;9.270;2023-02-03T12:33:10;5.20;;;2.50;;
801;SDS011;383;48.766;9.270;2023-02-03T12:35:46;5.50;;;2.75;;
801;SDS011;383;48.766;9.270;2023-02-03T12:38:19;11.57;;;6.25;;
801;SDS011;383;48.766;9.270;2023-02-03T12:40:57;2.33;;;1.75;;
801;SDS011;383;48.766;9.270;2023-02-03T12:43:26;2.75;;;1.40;;
801;SDS011;383;48.766;9.270;2023-02-03T12:46:02;4.72;;;2.00;;
801;SDS011;383;48.766;9.270;2023-02-03T12:48:39;1.73;;;1.38;;
801;SDS011;383;48.766;9.270;2023-02-03T12:51:13;3.78;;;1.52;;
801;SDS011;383;48.766;9.270;2023-02-03T12:53:46;2.70;;;1.55;;
801;SDS011;383;48.766;9.270;2023-02-03T12:56:17;1.73;;;1.25;;
801;SDS011;383;48.766;9.270;2023-02-03T12:58:51;2.58;;;1.42;;
801;SDS011;383;48.766;9.270;2023-02-03T13:01:22;4.00;;;2.28;;
801;SDS011;383;48.766;9.270;2023-02-03T13:03:54;3.45;;;2.05;;
801;SDS011;383;48.766;9.270;2023-02-03T13:06:28;4.10;;;1.88;;
801;SDS011;383;48.766;9.270;2023-02-03T13:08:59;1.98;;;1.55;;
801;SDS011;383;48.766;9.270;2023-02-03T13:11:30;1.73;;;1.13;;
801;SDS011;383;48.766;9.270;2023-02-03T13:14:04;1.73;;;0.95;;
801;SDS011;383;48.766;9.270;2023-02-03T13:16:39;3.28;;;2.50;;
801;SDS011;383;48.766;9.270;2023-02-03T13:19:10;2.35;;;1.60;;
801;SDS011;383;48.766;9.270;2023-02-03T13:21:43;1.92;;;1.73;;
801;SDS011;383;48.766;9.270;2023-02-03T13:24:10;1.55;;;0.90;;
801;SDS011;383;48.766;9.270;2023-02-03T13:26:50;1.30;;;1.20;;
801;SDS011;383;48.766;9.270;2023-02-03T13:29:48;5.85;;;1.10;;
801;SDS011;383;48.766;9.270;2023-02-03T13:32:36;2.63;;;1.85;;
801;SDS011;383;48.766;9.270;2023-02-03T13:35:25;4.22;;;2.83;;
801;SDS011;383;48.766;9.270;2023-02-03T13:38:15;1.70;;;1.60;;
801;SDS011;383;48.766;9.270;2023-02-03T13:41:01;2.22;;;1.42;;
801;SDS011;383;48.766;9.270;2023-02-03T13:43:33;1.33;;;1.23;;
801;SDS011;383;48.766;9.270;2023-02-03T13:46:03;1.10;;;1.00;;
801;SDS011;383;48.766;9.270;2023-02-03T13:48:31;5.88;;;1.00;;
801;SDS011;383;48.766;9.270;2023-02-03T13:51:03;1.80;;;1.60;;
801;SDS011;383;48.766;9.270;2023-02-03T13:53:34;1.73;;;1.10;;
801;SDS011;383;48.766;9.270;2023-02-03T13:56:03;1.45;;;0.95;;
801;SDS011;383;48.766;9.270;2023-02-03T13:58:34;2.35;;;1.60;;
801;SDS011;383;48.766;9.270;2023-02-03T14:01:04;2.75;;;1.80;;
801;SDS011;383;48.766;9.270;2023-02-03T14:03:45;6.60;;;1.70;;
801;SDS011;383;48.766;9.270;2023-02-03T14:09:34;3.28;;;1.40;;
801;SDS011;383;48.766;9.270;2023-02-03T14:12:15;1.10;;;1.00;;
801;SDS011;383;48.766;9.270;2023-02-03T14:14:57;1.40;;;1.23;;
801;SDS011;383;48.766;9.270;2023-02-03T14:20:57;1.05;;;1.02;;
801;SDS011;383;48.766;9.270;2023-02-03T14:23:41;1.33;;;1.25;;
801;SDS011;383;48.766;9.270;2023-02-03T14:26:20;1.38;;;1.10;;
801;SDS011;383;48.766;9.270;2023-02-03T14:29:06;1.95;;;1.33;;
801;SDS011;383;48.766;9.270;2023-02-03T14:31:50;1.75;;;1.10;;
801;SDS011;383;48.766;9.270;2023-02-03T14:34:32;2.10;;;1.45;;
801;SDS011;383;48.766;9.270;2023-02-03T14:37:14;1.45;;;1.17;;
801;SDS011;383;48.766;9.270;2023-02-03T14:40:02;2.25;;;2.10;;
801;SDS011;383;48.766;9.270;2023-02-03T14:43:12;1.00;;;0.90;;
801;SDS011;383;48.766;9.270;2023-02-03T14:45:55;3.45;;;1.00;;
801;SDS011;383;48.766;9.270;2023-02-03T14:48:45;1.15;;;1.05;;
801;SDS011;383;48.766;9.270;2023-02-03T14:51:25;4.28;;;2.22;;
801;SDS011;383;48.766;9.270;2023-02-03T14:54:02;3.03;;;1.80;;
801;SDS011;383;48.766;9.270;2023-02-03T14:56:42;1.98;;;1.63;;
801;SDS011;383;48.766;9.270;2023-02-03T14:59:36;1.25;;;0.90;;
801;SDS011;383;48.766;9.270;2023-02-03T15:02:09;3.25;;;1.55;;
801;SDS011;383;48.766;9.270;2023-02-03T15:04:38;2.17;;;1.85;;
801;SDS011;383;48.766;9.270;2023-02-03T15:07:05;4.25;;;2.90;;
801;SDS011;383;48.766;9.270;2023-02-03T15:09:33;3.17;;;2.15;;
801;SDS011;383;48.766;9.270;2023-02-03T15:12:13;4.13;;;1.10;;
801;SDS011;383;48.766;9.270;2023-02-03T15:14:43;3.25;;;1.75;;
801;SDS011;383;48.766;9.270;2023-02-03T15:17:10;1.30;;;1.15;;
801;SDS011;383;48.766;9.270;2023-02-03T15:19:39;3.85;;;3.13;;
801;SDS011;383;48.766;9.270;2023-02-03T15:22:17;3.22;;;2.30;;
801;SDS011;383;48.766;9.270;2023-02-03T15:24:45;1.35;;;1.20;;
801;SDS011;383;48.766;9.270;2023-02-03T15:29:47;2.38;;;1.90;;
801;SDS011;383;48.766;9.270;2023-02-03T15:32:14;2.30;;;2.05;;
801;SDS011;383;48.766;9.270;2023-02-03T15:34:46;5.55;;;3.20;;
801;SDS011;383;48.766;9.270;2023-02-03T15:37:16;3.03;;;2.28;;
801;SDS011;383;48.766;9.270;2023-02-03T15:39:47;3.65;;;1.90;;
801;SDS011;383;48.766;9.270;2023-02-03T15:42:22;1.30;;;1.20;;
801;SDS011;383;48.766;9.270;2023-02-03T15:44:56;3.83;;;1.20;;
801;SDS011;383;48.766;9.270;2023-02-03T15:47:29;2.15;;;1.52;;
801;SDS011;383;48.766;9.270;2023-02-03T15:50:07;16.70;;;6.32;;
801;SDS011;383;48.766;9.270;2023-02-03T15:52:49;1.60;;;1.60;;
801;SDS011;383;48.766;9.270;2023-02-03T15:55:21;1.35;;;0.98;;
801;SDS011;383;48.766;9.270;2023-02-03T15:57:55;4.90;;;4.05;;
801;SDS011;383;48.766;9.270;2023-02-03T16:00:29;3.72;;;2.58;;
801;SDS011;383;48.766;9.270;2023-02-03T16:02:58;15.50;;;8.35;;
801;SDS011;383;48.766;9.270;2023-02-03T16:05:27;9.95;;;6.30;;
801;SDS011;383;48.766;9.270;2023-02-03T16:10:52;6.13;;;3.85;;
801;SDS011;383;48.766;9.270;2023-02-03T16:13:19;4.55;;;2.15;;
801;SDS011;383;48.766;9.270;2023-02-03T16:16:03;3.78;;;2.50;;
801;SDS011;383;48.766;9.270;2023-02-03T16:18:33;6.63;;;3.58;;
801;SDS011;383;48.766;9.270;2023-02-03T16:21:00;4.78;;;2.40;;
801;SDS011;383;48.766;9.270;2023-02-03T16:23:27;16.35;;;8.70;;
801;SDS011;383;48.766;9.270;2023-02-03T16:26:05;25.25;;;11.90;;
801;SDS011;383;48.766;9.270;2023-02-03T16:28:42;19.27;;;8.00;;